sensor_id;sensor_type;location;lat;lon;timestamp;pressure;altitude;pressure_sealevel;temperature;humidity
17362;BME280;8798;51.938;4.348;2022-12-19T00:00:28;102466.50;;;3.11;90.23
17362;BME280;8798;51.938;4.348;2022-12-19T00:02:56;102455.84;;;3.12;89.72
17362;BME280;8798;51.938;4.348;2022-12-19T00:05:23;102446.13;;;3.11;89.70
17362;BME280;8798;51.938;4.348;2022-12-19T00:07:51;102452.25;;;3.13;90.12
17362;BME280;8798;51.938;4.348;2022-12-19T00:10:21;102446.88;;;3.15;90.28
17362;BME280;8798;51.938;4.348;2022-12-19T00:12:50;102450.34;;;3.17;89.71
17362;BME280;8798;51.938;4.348;2022-12-19T00:15:18;102454.66;;;3.19;89.68
17362;BME280;8798;51.938;4.348;2022-12-19T00:17:46;102451.00;;;3.22;89.64
17362;BME280;8798;51.938;4.348;2022-12-19T00:20:13;102464.16;;;3.25;89.80
17362;BME280;8798;51.938;4.348;2022-12-19T00:22:44;102471.94;;;3.30;89.71
17362;BME280;8798;51.938;4.348;2022-12-19T00:25:11;102479.75;;;3.33;90.33
17362;BME280;8798;51.938;4.348;2022-12-19T00:27:39;102478.75;;;3.35;89.71
17362;BME280;8798;51.938;4.348;2022-12-19T00:30:10;102483.09;;;3.38;89.62
17362;BME280;8798;51.938;4.348;2022-12-19T00:32:38;102486.41;;;3.43;90.09
17362;BME280;8798;51.938;4.348;2022-12-19T00:35:06;102492.53;;;3.45;89.88
17362;BME280;8798;51.938;4.348;2022-12-19T00:37:34;102502.09;;;3.49;90.05
17362;BME280;8798;51.938;4.348;2022-12-19T00:40:05;102509.06;;;3.52;90.32
17362;BME280;8798;51.938;4.348;2022-12-19T00:42:33;102515.06;;;3.57;90.49
17362;BME280;8798;51.938;4.348;2022-12-19T00:45:01;102518.53;;;3.59;89.93
17362;BME280;8798;51.938;4.348;2022-12-19T00:47:30;102521.94;;;3.61;90.62
17362;BME280;8798;51.938;4.348;2022-12-19T00:49:58;102525.34;;;3.64;90.04
17362;BME280;8798;51.938;4.348;2022-12-19T00:52:26;102528.72;;;3.68;90.56
17362;BME280;8798;51.938;4.348;2022-12-19T00:54:56;102526.03;;;3.70;90.19
17362;BME280;8798;51.938;4.348;2022-12-19T00:57:24;102526.75;;;3.73;90.41
17362;BME280;8798;51.938;4.348;2022-12-19T00:59:51;102537.25;;;3.76;90.94
17362;BME280;8798;51.938;4.348;2022-12-19T01:02:19;102537.13;;;3.79;90.29
17362;BME280;8798;51.938;4.348;2022-12-19T01:04:49;102534.41;;;3.81;90.47
17362;BME280;8798;51.938;4.348;2022-12-19T01:07:16;102525.44;;;3.83;90.32
17362;BME280;8798;51.938;4.348;2022-12-19T01:09:44;102536.84;;;3.85;90.55
17362;BME280;8798;51.938;4.348;2022-12-19T01:12:14;102532.31;;;3.87;90.56
17362;BME280;8798;51.938;4.348;2022-12-19T01:14:59;102540.09;;;3.92;90.31
17362;BME280;8798;51.938;4.348;2022-12-19T01:17:30;102537.41;;;3.94;90.64
17362;BME280;8798;51.938;4.348;2022-12-19T01:20:12;102543.44;;;3.97;90.49
17362;BME280;8798;51.938;4.348;2022-12-19T01:22:40;102538.97;;;3.98;90.80
17362;BME280;8798;51.938;4.348;2022-12-19T01:25:08;102545.88;;;4.02;90.93
17362;BME280;8798;51.938;4.348;2022-12-19T01:27:36;102543.09;;;4.05;90.68
17362;BME280;8798;51.938;4.348;2022-12-19T01:30:05;102552.72;;;4.07;90.60
17362;BME280;8798;51.938;4.348;2022-12-19T01:32:35;102553.47;;;4.11;90.76
17362;BME280;8798;51.938;4.348;2022-12-19T01:35:03;102548.97;;;4.13;90.73
17362;BME280;8798;51.938;4.348;2022-12-19T01:37:36;102544.41;;;4.15;90.73
17362;BME280;8798;51.938;4.348;2022-12-19T01:40:05;102549.63;;;4.18;90.80
17362;BME280;8798;51.938;4.348;2022-12-19T01:42:35;102553.84;;;4.22;90.76
17362;BME280;8798;51.938;4.348;2022-12-19T01:45:25;102551.94;;;4.26;90.78
17362;BME280;8798;51.938;4.348;2022-12-19T01:48:06;102561.56;;;4.28;91.18
17362;BME280;8798;51.938;4.348;2022-12-19T01:50:49;102558.75;;;4.31;90.49
17362;BME280;8798;51.938;4.348;2022-12-19T01:53:32;102563.94;;;4.35;91.00
17362;BME280;8798;51.938;4.348;2022-12-19T01:56:14;102561.16;;;4.38;91.13
17362;BME280;8798;51.938;4.348;2022-12-19T01:58:43;102556.63;;;4.40;91.22
17362;BME280;8798;51.938;4.348;2022-12-19T02:01:13;102556.56;;;4.41;90.98
17362;BME280;8798;51.938;4.348;2022-12-19T02:03:41;102562.59;;;4.45;91.05
17362;BME280;8798;51.938;4.348;2022-12-19T02:06:11;102564.25;;;4.47;90.91
17362;BME280;8798;51.938;4.348;2022-12-19T02:08:46;102562.31;;;4.51;91.09
17362;BME280;8798;51.938;4.348;2022-12-19T02:11:14;102549.81;;;4.53;90.89
17362;BME280;8798;51.938;4.348;2022-12-19T02:13:42;102560.38;;;4.55;91.14
17362;BME280;8798;51.938;4.348;2022-12-19T02:16:18;102549.63;;;4.58;90.82
17362;BME280;8798;51.938;4.348;2022-12-19T02:19:02;102559.31;;;4.59;91.08
17362;BME280;8798;51.938;4.348;2022-12-19T02:21:44;102543.28;;;4.60;91.43
17362;BME280;8798;51.938;4.348;2022-12-19T02:24:47;102539.63;;;4.63;91.12
17362;BME280;8798;51.938;4.348;2022-12-19T02:27:43;102537.66;;;4.66;91.10
17362;BME280;8798;51.938;4.348;2022-12-19T02:30:13;102542.84;;;4.69;91.29
17362;BME280;8798;51.938;4.348;2022-12-19T02:32:56;102539.25;;;4.70;91.22
17362;BME280;8798;51.938;4.348;2022-12-19T02:35:30;102543.47;;;4.74;90.92
17362;BME280;8798;51.938;4.348;2022-12-19T02:38:09;102544.22;;;4.78;91.40
17362;BME280;8798;51.938;4.348;2022-12-19T02:40:41;102555.56;;;4.82;91.46
17362;BME280;8798;51.938;4.348;2022-12-19T02:43:14;102549.25;;;4.84;91.31
17362;BME280;8798;51.938;4.348;2022-12-19T02:45:43;102561.47;;;4.88;91.09
17362;BME280;8798;51.938;4.348;2022-12-19T02:48:14;102562.19;;;4.92;91.44
17362;BME280;8798;51.938;4.348;2022-12-19T02:50:46;102563.78;;;4.96;91.54
17362;BME280;8798;51.938;4.348;2022-12-19T02:53:16;102565.38;;;5.00;91.68
17362;BME280;8798;51.938;4.348;2022-12-19T02:56:02;102578.47;;;5.05;91.10
17362;BME280;8798;51.938;4.348;2022-12-19T02:58:49;102578.31;;;5.08;91.23
17362;BME280;8798;51.938;4.348;2022-12-19T03:01:31;102585.25;;;5.12;90.87
17362;BME280;8798;51.938;4.348;2022-12-19T03:04:12;102587.75;;;5.15;91.73
17362;BME280;8798;51.938;4.348;2022-12-19T03:06:46;102582.22;;;5.20;91.66
17362;BME280;8798;51.938;4.348;2022-12-19T03:09:21;102587.38;;;5.23;91.08
17362;BME280;8798;51.938;4.348;2022-12-19T03:11:58;102582.75;;;5.26;91.86
17362;BME280;8798;51.938;4.348;2022-12-19T03:14:29;102581.75;;;5.29;91.14
17362;BME280;8798;51.938;4.348;2022-12-19T03:17:02;102581.63;;;5.32;91.19
17362;BME280;8798;51.938;4.348;2022-12-19T03:19:32;102585.03;;;5.34;91.67
17362;BME280;8798;51.938;4.348;2022-12-19T03:22:00;102586.63;;;5.38;91.66
17362;BME280;8798;51.938;4.348;2022-12-19T03:24:28;102590.94;;;5.41;91.88
17362;BME280;8798;51.938;4.348;2022-12-19T03:26:59;102586.34;;;5.44;91.54
17362;BME280;8798;51.938;4.348;2022-12-19T03:29:33;102596.84;;;5.47;91.50
17362;BME280;8798;51.938;4.348;2022-12-19T03:32:03;102595.69;;;5.53;91.62
17362;BME280;8798;51.938;4.348;2022-12-19T03:34:35;102603.38;;;5.59;91.70
17362;BME280;8798;51.938;4.348;2022-12-19T03:37:13;102627.06;;;5.65;91.14
17362;BME280;8798;51.938;4.348;2022-12-19T03:39:47;102626.84;;;5.70;92.09
17362;BME280;8798;51.938;4.348;2022-12-19T03:42:16;102638.13;;;5.75;91.67
17362;BME280;8798;51.938;4.348;2022-12-19T03:45:04;102643.16;;;5.81;91.16
17362;BME280;8798;51.938;4.348;2022-12-19T03:47:36;102636.91;;;5.82;91.90
17362;BME280;8798;51.938;4.348;2022-12-19T03:50:07;102635.88;;;5.85;91.54
17362;BME280;8798;51.938;4.348;2022-12-19T03:52:41;102630.47;;;5.86;92.22
17362;BME280;8798;51.938;4.348;2022-12-19T03:55:20;102631.25;;;5.88;91.98
17362;BME280;8798;51.938;4.348;2022-12-19T03:57:55;102623.97;;;5.92;91.73
17362;BME280;8798;51.938;4.348;2022-12-19T04:00:24;102630.97;;;5.94;91.92
17362;BME280;8798;51.938;4.348;2022-12-19T04:02:54;102631.69;;;5.98;91.97
17362;BME280;8798;51.938;4.348;2022-12-19T04:05:27;102630.53;;;6.03;92.57
17362;BME280;8798;51.938;4.348;2022-12-19T04:07:58;102633.94;;;6.06;91.95
17362;BME280;8798;51.938;4.348;2022-12-19T04:10:28;102638.13;;;6.11;92.34
17362;BME280;8798;51.938;4.348;2022-12-19T04:12:58;102643.31;;;6.14;91.62
17362;BME280;8798;51.938;4.348;2022-12-19T04:15:32;102642.28;;;6.17;91.24
17362;BME280;8798;51.938;4.348;2022-12-19T04:18:03;102646.53;;;6.21;91.68
17362;BME280;8798;51.938;4.348;2022-12-19T04:20:36;102656.94;;;6.25;92.36
17362;BME280;8798;51.938;4.348;2022-12-19T04:23:09;102636.50;;;6.26;92.44
17362;BME280;8798;51.938;4.348;2022-12-19T04:25:44;102633.72;;;6.28;92.57
17362;BME280;8798;51.938;4.348;2022-12-19T04:28:16;102628.25;;;6.31;91.84
17362;BME280;8798;51.938;4.348;2022-12-19T04:30:46;102630.81;;;6.32;91.93
17362;BME280;8798;51.938;4.348;2022-12-19T04:33:15;102609.41;;;6.34;91.61
17362;BME280;8798;51.938;4.348;2022-12-19T04:35:44;102613.78;;;6.35;92.53
17362;BME280;8798;51.938;4.348;2022-12-19T04:38:12;102611.03;;;6.36;92.73
17362;BME280;8798;51.938;4.348;2022-12-19T04:40:40;102606.50;;;6.38;92.05
17362;BME280;8798;51.938;4.348;2022-12-19T04:43:08;102594.78;;;6.41;91.99
17362;BME280;8798;51.938;4.348;2022-12-19T04:45:36;102599.09;;;6.43;92.35
17362;BME280;8798;51.938;4.348;2022-12-19T04:48:04;102583.09;;;6.43;92.00
17362;BME280;8798;51.938;4.348;2022-12-19T04:50:34;102577.59;;;6.46;91.93
17362;BME280;8798;51.938;4.348;2022-12-19T04:53:03;102579.28;;;6.47;92.28
17362;BME280;8798;51.938;4.348;2022-12-19T04:55:32;102578.25;;;6.50;93.03
17362;BME280;8798;51.938;4.348;2022-12-19T04:58:00;102571.91;;;6.53;92.75
17362;BME280;8798;51.938;4.348;2022-12-19T05:00:30;102570.91;;;6.55;91.68
17362;BME280;8798;51.938;4.348;2022-12-19T05:02:58;102562.72;;;6.58;91.75
17362;BME280;8798;51.938;4.348;2022-12-19T05:05:26;102567.03;;;6.61;91.93
17362;BME280;8798;51.938;4.348;2022-12-19T05:07:54;102562.47;;;6.63;91.97
17362;BME280;8798;51.938;4.348;2022-12-19T05:10:26;102561.50;;;6.64;93.13
17362;BME280;8798;51.938;4.348;2022-12-19T05:12:54;102544.53;;;6.65;91.80
17362;BME280;8798;51.938;4.348;2022-12-19T05:15:22;102540.84;;;6.67;92.02
17362;BME280;8798;51.938;4.348;2022-12-19T05:17:50;102538.16;;;6.67;91.80
17362;BME280;8798;51.938;4.348;2022-12-19T05:20:17;102528.25;;;6.70;92.30
17362;BME280;8798;51.938;4.348;2022-12-19T05:22:45;102531.72;;;6.72;92.15
17362;BME280;8798;51.938;4.348;2022-12-19T05:25:13;102522.69;;;6.74;92.84
17362;BME280;8798;51.938;4.348;2022-12-19T05:27:43;102517.25;;;6.76;92.09
17362;BME280;8798;51.938;4.348;2022-12-19T05:30:11;102513.63;;;6.77;92.59
17362;BME280;8798;51.938;4.348;2022-12-19T05:32:39;102511.75;;;6.79;92.40
17362;BME280;8798;51.938;4.348;2022-12-19T05:35:07;102508.03;;;6.81;91.87
17362;BME280;8798;51.938;4.348;2022-12-19T05:37:35;102491.94;;;6.83;92.05
17362;BME280;8798;51.938;4.348;2022-12-19T05:40:04;102490.97;;;6.84;92.74
17362;BME280;8798;51.938;4.348;2022-12-19T05:42:32;102486.34;;;6.87;92.60
17362;BME280;8798;51.938;4.348;2022-12-19T05:45:02;102485.31;;;6.90;92.55
17362;BME280;8798;51.938;4.348;2022-12-19T05:47:30;102482.53;;;6.92;92.77
17362;BME280;8798;51.938;4.348;2022-12-19T05:49:57;102471.84;;;6.92;92.65
17362;BME280;8798;51.938;4.348;2022-12-19T05:52:25;102467.34;;;6.92;93.25
17362;BME280;8798;51.938;4.348;2022-12-19T05:54:57;102463.66;;;6.95;92.26
17362;BME280;8798;51.938;4.348;2022-12-19T05:57:25;102449.34;;;6.96;92.92
17362;BME280;8798;51.938;4.348;2022-12-19T05:59:56;102441.25;;;6.97;92.26
17362;BME280;8798;51.938;4.348;2022-12-19T06:02:25;102442.97;;;6.98;92.94
17362;BME280;8798;51.938;4.348;2022-12-19T06:04:53;102428.66;;;6.99;92.68
17362;BME280;8798;51.938;4.348;2022-12-19T06:07:21;102432.97;;;7.02;92.96
17362;BME280;8798;51.938;4.348;2022-12-19T06:09:49;102424.94;;;7.02;92.48
17362;BME280;8798;51.938;4.348;2022-12-19T06:12:17;102421.22;;;7.04;92.70
17362;BME280;8798;51.938;4.348;2022-12-19T06:14:44;102420.31;;;7.05;92.82
17362;BME280;8798;51.938;4.348;2022-12-19T06:17:12;102413.91;;;7.08;93.31
17362;BME280;8798;51.938;4.348;2022-12-19T06:19:41;102417.38;;;7.10;92.01
17362;BME280;8798;51.938;4.348;2022-12-19T06:22:09;102424.22;;;7.14;92.93
17362;BME280;8798;51.938;4.348;2022-12-19T06:24:39;102421.47;;;7.16;92.88
17362;BME280;8798;51.938;4.348;2022-12-19T06:27:07;102411.66;;;7.16;93.04
17362;BME280;8798;51.938;4.348;2022-12-19T06:29:36;102400.03;;;7.17;92.10
17362;BME280;8798;51.938;4.348;2022-12-19T06:32:04;102400.75;;;7.19;92.35
17362;BME280;8798;51.938;4.348;2022-12-19T06:34:34;102404.13;;;7.23;92.36
17362;BME280;8798;51.938;4.348;2022-12-19T06:37:23;102399.56;;;7.25;92.93
17362;BME280;8798;51.938;4.348;2022-12-19T06:39:51;102395.84;;;7.27;92.62
17362;BME280;8798;51.938;4.348;2022-12-19T06:42:18;102393.06;;;7.29;91.95
17362;BME280;8798;51.938;4.348;2022-12-19T06:44:49;102390.31;;;7.30;92.21
17362;BME280;8798;51.938;4.348;2022-12-19T06:47:17;102391.94;;;7.33;92.64
17362;BME280;8798;51.938;4.348;2022-12-19T06:49:44;102386.50;;;7.35;92.21
17362;BME280;8798;51.938;4.348;2022-12-19T06:52:16;102384.59;;;7.37;92.77
17362;BME280;8798;51.938;4.348;2022-12-19T06:54:45;102386.13;;;7.41;92.57
17362;BME280;8798;51.938;4.348;2022-12-19T06:57:13;102385.16;;;7.42;92.75
17362;BME280;8798;51.938;4.348;2022-12-19T06:59:41;102377.84;;;7.45;92.29
17362;BME280;8798;51.938;4.348;2022-12-19T07:02:18;102394.53;;;7.49;93.01
17362;BME280;8798;51.938;4.348;2022-12-19T07:04:50;102384.59;;;7.51;92.61
17362;BME280;8798;51.938;4.348;2022-12-19T07:07:18;102403.13;;;7.54;92.38
17362;BME280;8798;51.938;4.348;2022-12-19T07:09:48;102396.72;;;7.57;92.64
17362;BME280;8798;51.938;4.348;2022-12-19T07:12:17;102388.63;;;7.58;92.61
17362;BME280;8798;51.938;4.348;2022-12-19T07:14:45;102385.88;;;7.60;93.31
17362;BME280;8798;51.938;4.348;2022-12-19T07:17:19;102380.41;;;7.61;92.22
17362;BME280;8798;51.938;4.348;2022-12-19T07:19:48;102380.25;;;7.64;92.73
17362;BME280;8798;51.938;4.348;2022-12-19T07:22:19;102371.25;;;7.65;92.63
17362;BME280;8798;51.938;4.348;2022-12-19T07:24:48;102368.50;;;7.67;92.75
17362;BME280;8798;51.938;4.348;2022-12-19T07:27:16;102356.91;;;7.66;92.76
17362;BME280;8798;51.938;4.348;2022-12-19T07:29:44;102355.00;;;7.68;92.67
17362;BME280;8798;51.938;4.348;2022-12-19T07:32:12;102355.78;;;7.70;92.51
17362;BME280;8798;51.938;4.348;2022-12-19T07:34:40;102347.69;;;7.72;92.30
17362;BME280;8798;51.938;4.348;2022-12-19T07:37:08;102336.97;;;7.72;92.89
17362;BME280;8798;51.938;4.348;2022-12-19T07:39:35;102336.88;;;7.73;93.46
17362;BME280;8798;51.938;4.348;2022-12-19T07:42:05;102326.94;;;7.75;92.93
17362;BME280;8798;51.938;4.348;2022-12-19T07:44:32;102313.56;;;7.75;92.83
17362;BME280;8798;51.938;4.348;2022-12-19T07:47:00;102310.88;;;7.75;92.73
17362;BME280;8798;51.938;4.348;2022-12-19T07:49:28;102304.59;;;7.77;92.77
17362;BME280;8798;51.938;4.348;2022-12-19T07:51:56;102306.31;;;7.78;93.44
17362;BME280;8798;51.938;4.348;2022-12-19T07:54:24;102291.09;;;7.78;92.77
17362;BME280;8798;51.938;4.348;2022-12-19T07:56:52;102288.44;;;7.78;93.21
17362;BME280;8798;51.938;4.348;2022-12-19T07:59:21;102275.91;;;7.79;92.38
17362;BME280;8798;51.938;4.348;2022-12-19T08:01:55;102265.22;;;7.79;92.36
17362;BME280;8798;51.938;4.348;2022-12-19T08:04:24;102270.56;;;7.79;92.91
17362;BME280;8798;51.938;4.348;2022-12-19T08:06:52;102258.06;;;7.79;92.76
17362;BME280;8798;51.938;4.348;2022-12-19T08:09:20;102251.66;;;7.82;92.63
17362;BME280;8798;51.938;4.348;2022-12-19T08:11:48;102249.00;;;7.82;92.50
17362;BME280;8798;51.938;4.348;2022-12-19T08:14:16;102248.03;;;7.83;93.03
17362;BME280;8798;51.938;4.348;2022-12-19T08:16:45;102241.69;;;7.84;92.97
17362;BME280;8798;51.938;4.348;2022-12-19T08:19:32;102245.13;;;7.86;93.19
17362;BME280;8798;51.938;4.348;2022-12-19T08:22:00;102229.97;;;7.86;92.52
17362;BME280;8798;51.938;4.348;2022-12-19T08:24:28;102229.84;;;7.88;93.24
17362;BME280;8798;51.938;4.348;2022-12-19T08:26:56;102230.63;;;7.90;92.71
17362;BME280;8798;51.938;4.348;2022-12-19T08:29:24;102228.72;;;7.92;92.74
17362;BME280;8798;51.938;4.348;2022-12-19T08:31:53;102225.06;;;7.93;93.33
17362;BME280;8798;51.938;4.348;2022-12-19T08:34:21;102231.19;;;7.95;93.29
17362;BME280;8798;51.938;4.348;2022-12-19T08:36:49;102236.31;;;7.98;93.44
17362;BME280;8798;51.938;4.348;2022-12-19T08:39:17;102234.31;;;8.02;92.52
17362;BME280;8798;51.938;4.348;2022-12-19T08:41:44;102243.97;;;8.04;92.98
17362;BME280;8798;51.938;4.348;2022-12-19T08:44:12;102235.81;;;8.06;92.39
17362;BME280;8798;51.938;4.348;2022-12-19T08:46:40;102245.44;;;8.08;93.01
17362;BME280;8798;51.938;4.348;2022-12-19T08:49:16;102236.47;;;8.09;93.33
17362;BME280;8798;51.938;4.348;2022-12-19T08:51:45;102232.84;;;8.10;92.92
17362;BME280;8798;51.938;4.348;2022-12-19T08:54:13;102233.59;;;8.12;92.85
17362;BME280;8798;51.938;4.348;2022-12-19T08:56:41;102240.47;;;8.16;92.92
17362;BME280;8798;51.938;4.348;2022-12-19T08:59:12;102245.63;;;8.19;92.59
17362;BME280;8798;51.938;4.348;2022-12-19T09:01:56;102238.44;;;8.20;93.30
17362;BME280;8798;51.938;4.348;2022-12-19T09:04:25;102235.66;;;8.22;92.75
17362;BME280;8798;51.938;4.348;2022-12-19T09:07:13;102237.38;;;8.23;92.90
17362;BME280;8798;51.938;4.348;2022-12-19T09:09:41;102229.25;;;8.24;93.27
17362;BME280;8798;51.938;4.348;2022-12-19T09:12:10;102240.59;;;8.28;93.33
17362;BME280;8798;51.938;4.348;2022-12-19T09:14:38;102236.09;;;8.28;93.31
17362;BME280;8798;51.938;4.348;2022-12-19T09:17:06;102235.91;;;8.31;93.25
17362;BME280;8798;51.938;4.348;2022-12-19T09:19:36;102230.44;;;8.33;92.92
17362;BME280;8798;51.938;4.348;2022-12-19T09:22:05;102234.84;;;8.34;92.64
17362;BME280;8798;51.938;4.348;2022-12-19T09:24:33;102230.25;;;8.36;93.18
17362;BME280;8798;51.938;4.348;2022-12-19T09:27:01;102227.47;;;8.37;93.23
17362;BME280;8798;51.938;4.348;2022-12-19T09:29:28;102229.09;;;8.40;93.08
17362;BME280;8798;51.938;4.348;2022-12-19T09:32:01;102228.03;;;8.43;93.36
17362;BME280;8798;51.938;4.348;2022-12-19T09:34:28;102224.41;;;8.44;93.18
17362;BME280;8798;51.938;4.348;2022-12-19T09:37:06;102231.38;;;8.46;93.34
17362;BME280;8798;51.938;4.348;2022-12-19T09:39:42;102235.56;;;8.50;93.09
17362;BME280;8798;51.938;4.348;2022-12-19T09:42:20;102247.78;;;8.54;93.51
17362;BME280;8798;51.938;4.348;2022-12-19T09:45:03;102238.78;;;8.55;93.24
17362;BME280;8798;51.938;4.348;2022-12-19T09:47:41;102250.16;;;8.59;92.92
17362;BME280;8798;51.938;4.348;2022-12-19T09:50:23;102249.94;;;8.62;93.14
17362;BME280;8798;51.938;4.348;2022-12-19T09:52:58;102251.56;;;8.65;93.17
17362;BME280;8798;51.938;4.348;2022-12-19T09:55:32;102252.41;;;8.65;92.96
17362;BME280;8798;51.938;4.348;2022-12-19T09:58:04;102241.59;;;8.67;92.95
17362;BME280;8798;51.938;4.348;2022-12-19T10:00:38;102235.25;;;8.68;93.29
17362;BME280;8798;51.938;4.348;2022-12-19T10:03:15;102240.44;;;8.71;93.12
17362;BME280;8798;51.938;4.348;2022-12-19T10:05:48;102231.50;;;8.70;93.11
17362;BME280;8798;51.938;4.348;2022-12-19T10:08:40;102221.69;;;8.71;93.53
17362;BME280;8798;51.938;4.348;2022-12-19T10:11:42;102210.84;;;8.72;92.98
17362;BME280;8798;51.938;4.348;2022-12-19T10:14:40;102209.91;;;8.73;93.19
17362;BME280;8798;51.938;4.348;2022-12-19T10:17:19;102208.06;;;8.74;93.32
17362;BME280;8798;51.938;4.348;2022-12-19T10:20:02;102193.69;;;8.75;93.07
17362;BME280;8798;51.938;4.348;2022-12-19T10:22:39;102200.78;;;8.76;93.37
17362;BME280;8798;51.938;4.348;2022-12-19T10:25:26;102202.41;;;8.78;93.35
17362;BME280;8798;51.938;4.348;2022-12-19T10:27:59;102202.19;;;8.81;93.02
17362;BME280;8798;51.938;4.348;2022-12-19T10:30:35;102206.47;;;8.84;93.44
17362;BME280;8798;51.938;4.348;2022-12-19T10:33:14;102197.44;;;8.85;93.19
17362;BME280;8798;51.938;4.348;2022-12-19T10:35:53;102206.25;;;8.87;93.26
17362;BME280;8798;51.938;4.348;2022-12-19T10:38:30;102200.78;;;8.89;93.20
17362;BME280;8798;51.938;4.348;2022-12-19T10:41:12;102207.66;;;8.93;93.34
17362;BME280;8798;51.938;4.348;2022-12-19T10:43:56;102216.34;;;8.96;93.16
17362;BME280;8798;51.938;4.348;2022-12-19T10:46:39;102226.72;;;9.01;93.40
17362;BME280;8798;51.938;4.348;2022-12-19T10:49:11;102230.03;;;9.04;93.32
17362;BME280;8798;51.938;4.348;2022-12-19T10:51:40;102236.06;;;9.08;93.24
17362;BME280;8798;51.938;4.348;2022-12-19T10:54:08;102230.56;;;9.10;93.33
17362;BME280;8798;51.938;4.348;2022-12-19T10:56:37;102240.13;;;9.14;93.07
17362;BME280;8798;51.938;4.348;2022-12-19T10:59:15;102241.72;;;9.16;93.31
17362;BME280;8798;51.938;4.348;2022-12-19T11:01:44;102236.28;;;9.18;93.20
17362;BME280;8798;51.938;4.348;2022-12-19T11:04:29;102231.75;;;9.18;93.35
17362;BME280;8798;51.938;4.348;2022-12-19T11:07:15;102230.78;;;9.19;93.11
17362;BME280;8798;51.938;4.348;2022-12-19T11:09:45;102212.91;;;9.20;93.38
17362;BME280;8798;51.938;4.348;2022-12-19T11:12:34;102206.56;;;9.21;93.37
17362;BME280;8798;51.938;4.348;2022-12-19T11:15:22;102203.78;;;9.22;93.15
17362;BME280;8798;51.938;4.348;2022-12-19T11:18:11;102200.97;;;9.24;93.47
17362;BME280;8798;51.938;4.348;2022-12-19T11:21:01;102189.50;;;9.22;92.91
17362;BME280;8798;51.938;4.348;2022-12-19T11:23:52;102173.41;;;9.22;93.53
17362;BME280;8798;51.938;4.348;2022-12-19T11:26:43;102168.06;;;9.22;93.32
17362;BME280;8798;51.938;4.348;2022-12-19T11:29:50;102159.06;;;9.23;93.80
17362;BME280;8798;51.938;4.348;2022-12-19T11:32:40;102151.97;;;9.22;93.50
17362;BME280;8798;51.938;4.348;2022-12-19T11:35:18;102146.50;;;9.23;93.04
17362;BME280;8798;51.938;4.348;2022-12-19T11:37:53;102140.16;;;9.24;93.27
17362;BME280;8798;51.938;4.348;2022-12-19T11:40:30;102140.06;;;9.26;93.28
17362;BME280;8798;51.938;4.348;2022-12-19T11:43:03;102135.44;;;9.28;93.22
17362;BME280;8798;51.938;4.348;2022-12-19T11:45:59;102137.91;;;9.31;93.28
17362;BME280;8798;51.938;4.348;2022-12-19T11:48:35;102138.88;;;9.30;93.52
17362;BME280;8798;51.938;4.348;2022-12-19T11:51:12;102123.66;;;9.31;93.14
17362;BME280;8798;51.938;4.348;2022-12-19T11:53:52;102116.44;;;9.31;93.24
17362;BME280;8798;51.938;4.348;2022-12-19T11:56:23;102115.50;;;9.32;93.39
17362;BME280;8798;51.938;4.348;2022-12-19T11:58:55;102114.53;;;9.33;93.38
17362;BME280;8798;51.938;4.348;2022-12-19T12:01:40;102109.78;;;9.37;93.42
17362;BME280;8798;51.938;4.348;2022-12-19T12:04:25;102103.56;;;9.36;93.28
17362;BME280;8798;51.938;4.348;2022-12-19T12:07:03;102100.78;;;9.38;93.26
17362;BME280;8798;51.938;4.348;2022-12-19T12:09:57;102099.78;;;9.39;93.53
17362;BME280;8798;51.938;4.348;2022-12-19T12:12:57;102104.94;;;9.42;93.22
17362;BME280;8798;51.938;4.348;2022-12-19T12:15:54;102095.94;;;9.43;93.37
17362;BME280;8798;51.938;4.348;2022-12-19T12:19:02;102092.16;;;9.45;93.38
17362;BME280;8798;51.938;4.348;2022-12-19T12:22:00;102099.13;;;9.48;93.77
17362;BME280;8798;51.938;4.348;2022-12-19T12:24:57;102098.78;;;9.53;93.40
17362;BME280;8798;51.938;4.348;2022-12-19T12:28:00;102085.47;;;9.51;93.35
17362;BME280;8798;51.938;4.348;2022-12-19T12:30:57;102081.84;;;9.52;93.49
17362;BME280;8798;51.938;4.348;2022-12-19T12:33:59;102078.19;;;9.53;93.54
17362;BME280;8798;51.938;4.348;2022-12-19T12:36:58;102072.81;;;9.53;93.38
17362;BME280;8798;51.938;4.348;2022-12-19T12:40:00;102057.56;;;9.54;93.27
17362;BME280;8798;51.938;4.348;2022-12-19T12:42:42;102051.25;;;9.55;93.61
17362;BME280;8798;51.938;4.348;2022-12-19T12:45:22;102041.47;;;9.54;93.38
17362;BME280;8798;51.938;4.348;2022-12-19T12:47:51;102036.00;;;9.55;93.52
17362;BME280;8798;51.938;4.348;2022-12-19T12:50:23;102039.44;;;9.57;93.17
17362;BME280;8798;51.938;4.348;2022-12-19T12:52:53;102041.03;;;9.60;93.34
17362;BME280;8798;51.938;4.348;2022-12-19T12:55:25;102035.66;;;9.60;93.32
17362;BME280;8798;51.938;4.348;2022-12-19T12:57:54;102042.50;;;9.64;93.07
17362;BME280;8798;51.938;4.348;2022-12-19T13:00:24;102041.53;;;9.65;93.38
17362;BME280;8798;51.938;4.348;2022-12-19T13:02:55;102034.22;;;9.67;93.17
17362;BME280;8798;51.938;4.348;2022-12-19T13:05:35;102051.78;;;9.71;93.34
17362;BME280;8798;51.938;4.348;2022-12-19T13:11:12;102059.25;;;9.79;93.49
17362;BME280;8798;51.938;4.348;2022-12-19T13:14:03;102052.09;;;9.79;93.26
17362;BME280;8798;51.938;4.348;2022-12-19T13:16:48;102043.91;;;9.81;93.42
17362;BME280;8798;51.938;4.348;2022-12-19T13:19:18;102048.31;;;9.82;93.21
17362;BME280;8798;51.938;4.348;2022-12-19T13:22:20;102047.22;;;9.84;93.47
17362;BME280;8798;51.938;4.348;2022-12-19T13:24:49;102039.16;;;9.84;93.26
17362;BME280;8798;51.938;4.348;2022-12-19T13:27:36;102024.88;;;9.84;93.20
17362;BME280;8798;51.938;4.348;2022-12-19T13:30:15;102024.66;;;9.87;93.55
17362;BME280;8798;51.938;4.348;2022-12-19T13:33:06;102030.75;;;9.89;93.50
17362;BME280;8798;51.938;4.348;2022-12-19T13:35:36;102032.38;;;9.92;93.52
17362;BME280;8798;51.938;4.348;2022-12-19T13:38:25;102027.72;;;9.94;93.32
17362;BME280;8798;51.938;4.348;2022-12-19T13:41:25;102021.38;;;9.95;93.56
17362;BME280;8798;51.938;4.348;2022-12-19T13:44:11;102012.34;;;9.96;93.44
17362;BME280;8798;51.938;4.348;2022-12-19T13:46:40;102008.69;;;9.97;93.27
17362;BME280;8798;51.938;4.348;2022-12-19T13:49:13;102009.56;;;9.97;93.28